Time;durP1;ratioP1;P1;durP2;ratioP2;P2;SDS_P1;SDS_P2;PMS_P1;PMS_P2;Temp;Humidity;BMP_temperature;BMP_pressure;BME280_temperature;BME280_humidity;BME280_pressure;Samples;Min_cycle;Max_cycle;Signal;HPM_P1;HPM_P2
2023/09/29 00:00:17;;;;;;;;;;;;;;;;;;5084825;28;19951;-59
2023/09/29 00:02:44;;;;;;;;;;;;;;;;;;5085658;28;20375;-59
2023/09/29 00:05:10;;;;;;;;;;;;;;;;;;5084657;28;19931;-59
2023/09/29 00:07:37;;;;;;;;;;;;;;;;;;5085802;28;19931;-59
2023/09/29 00:10:03;;;;;;;;;;;;;;;;;;5085947;28;19924;-59
2023/09/29 00:12:29;;;;;;;;;;;;;;;;;;5066586;28;19931;-59
2023/09/29 00:14:55;;;;;;;;;;;;;;;;;;5058215;28;20289;-59
2023/09/29 00:17:21;;;;;;;;;;;;;;;;;;5063689;28;19972;-59
2023/09/29 00:19:47;;;;;;;;;;;;;;;;;;5065450;28;19978;-59
2023/09/29 00:22:12;;;;;;;;;;;;;;;;;;5065869;28;20397;-58
2023/09/29 00:24:39;;;;;;;;;;;;;;;;;;5065891;28;19998;-59
2023/09/29 00:27:05;;;;;;;;;;;;;;;;;;5063766;28;19925;-59
2023/09/29 00:29:31;;;;;;;;;;;;;;;;;;5065864;28;19924;-58
2023/09/29 00:31:57;;;;;;;;;;;;;;;;;;5065567;28;20382;-59
2023/09/29 00:34:23;;;;;;;;;;;;;;;;;;5066086;28;19931;-59
2023/09/29 00:36:51;;;;;;;;;;;;;;;;;;5065901;28;19929;-61
2023/09/29 00:39:18;;;;;;;;;;;;;;;;;;5066078;28;19924;-59
2023/09/29 00:41:44;;;;;;;;;;;;;;;;;;5064005;28;19932;-59
2023/09/29 00:44:10;;;;;;;;;;;;;;;;;;5065292;28;20174;-59
2023/09/29 00:46:36;;;;;;;;;;;;;;;;;;5064865;28;20710;-59
2023/09/29 00:49:04;;;;;;;;;;;;;;;;;;5065016;28;19928;-59
2023/09/29 00:51:30;;;;;;;;;;;;;;;;;;5065101;28;20025;-59
2023/09/29 00:53:57;;;;;;;;;;;;;;;;;;5064847;28;19975;-59
2023/09/29 00:56:23;;;;;;;;;;;;;;;;;;5053415;28;19928;-59
2023/09/29 00:58:49;;;;;;;;;;;;;;;;;;5064137;28;19935;-59
2023/09/29 01:01:15;;;;;;;;;;;;;;;;;;5065309;28;19967;-59
2023/09/29 01:03:41;;;;;;;;;;;;;;;;;;5063768;28;19959;-59
2023/09/29 01:06:08;;;;;;;;;;;;;;;;;;5065201;28;20011;-59
2023/09/29 01:08:34;;;;;;;;;;;;;;;;;;5062770;28;19932;-59
2023/09/29 01:11:00;;;;;;;;;;;;;;;;;;5064460;28;19921;-60
2023/09/29 01:13:26;;;;;;;;;;;;;;;;;;5064498;28;20333;-59
2023/09/29 01:15:54;;;;;;;;;;;;;;;;;;5084058;28;19977;-61
2023/09/29 01:18:20;;;;;;;;;;;;;;;;;;5084780;28;20503;-59
2023/09/29 01:20:46;;;;;;;;;;;;;;;;;;5084474;28;19993;-59
2023/09/29 01:23:12;;;;;;;;;;;;;;;;;;5078190;28;20119;-59
2023/09/29 01:25:38;;;;;;;;;;;;;;;;;;5083784;28;19924;-58
2023/09/29 01:28:13;;;;;;;;;;;;;;;;;;5085079;28;20006;-58
2023/09/29 01:30:43;;;;;;;;;;;;;;;;;;5084146;28;19924;-58
2023/09/29 01:33:09;;;;;;;;;;;;;;;;;;5084160;28;19924;-58
2023/09/29 01:35:34;;;;;;;;;;;;;;;;;;5084792;28;19924;-58
2023/09/29 01:38:00;;;;;;;;;;;;;;;;;;5084949;28;19924;-58
2023/09/29 01:40:26;;;;;;;;;;;;;;;;;;5083337;28;19970;-58
2023/09/29 01:42:53;;;;;;;;;;;;;;;;;;5084766;28;20282;-58
2023/09/29 01:45:19;;;;;;;;;;;;;;;;;;5084196;28;19925;-58
2023/09/29 01:47:45;;;;;;;;;;;;;;;;;;5084051;28;19931;-58
2023/09/29 01:50:11;;;;;;;;;;;;;;;;;;5083945;28;19924;-58
2023/09/29 01:52:37;;;;;;;;;;;;;;;;;;5082241;28;19972;-58
2023/09/29 01:55:03;;;;;;;;;;;;;;;;;;5073805;28;19928;-59
2023/09/29 01:57:29;;;;;;;;;;;;;;;;;;5083532;28;19924;-59
2023/09/29 01:59:55;;;;;;;;;;;;;;;;;;5082639;28;19924;-59
2023/09/29 02:02:21;;;;;;;;;;;;;;;;;;5083808;28;20457;-58
2023/09/29 02:04:47;;;;;;;;;;;;;;;;;;5065087;28;19924;-58
2023/09/29 02:07:13;;;;;;;;;;;;;;;;;;5084136;28;20006;-58
2023/09/29 02:09:39;;;;;;;;;;;;;;;;;;5065711;28;20076;-58
2023/09/29 02:12:05;;;;;;;;;;;;;;;;;;5083610;28;20329;-58
2023/09/29 02:14:31;;;;;;;;;;;;;;;;;;5083091;28;20413;-58
2023/09/29 02:16:57;;;;;;;;;;;;;;;;;;5084390;28;19968;-58
2023/09/29 02:19:24;;;;;;;;;;;;;;;;;;5065394;28;20018;-58
2023/09/29 02:21:50;;;;;;;;;;;;;;;;;;5083972;28;20061;-58
2023/09/29 02:24:15;;;;;;;;;;;;;;;;;;5083856;28;20333;-58
2023/09/29 02:26:41;;;;;;;;;;;;;;;;;;5083380;28;19924;-58
2023/09/29 02:29:08;;;;;;;;;;;;;;;;;;5083176;28;19923;-58
2023/09/29 02:31:36;;;;;;;;;;;;;;;;;;5083700;28;20034;-58
2023/09/29 02:34:02;;;;;;;;;;;;;;;;;;5082997;28;19924;-58
2023/09/29 02:36:28;;;;;;;;;;;;;;;;;;5081478;28;20051;-58
2023/09/29 02:38:54;;;;;;;;;;;;;;;;;;5083716;28;20297;-58
2023/09/29 02:41:20;;;;;;;;;;;;;;;;;;5082751;28;19931;-58
2023/09/29 02:43:46;;;;;;;;;;;;;;;;;;5070310;28;20007;-58
2023/09/29 02:46:12;;;;;;;;;;;;;;;;;;5083791;28;19920;-58
2023/09/29 02:48:38;;;;;;;;;;;;;;;;;;5083813;28;19951;-58
2023/09/29 02:51:04;;;;;;;;;;;;;;;;;;5083174;28;19927;-58
2023/09/29 02:53:31;;;;;;;;;;;;;;;;;;5083500;28;19924;-58
2023/09/29 02:55:56;;;;;;;;;;;;;;;;;;5063593;28;20619;-58
2023/09/29 02:58:23;;;;;;;;;;;;;;;;;;5071743;28;19928;-58
2023/09/29 03:00:49;;;;;;;;;;;;;;;;;;5082921;28;20434;-58
2023/09/29 03:03:15;;;;;;;;;;;;;;;;;;5083242;28;19963;-58
2023/09/29 03:05:41;;;;;;;;;;;;;;;;;;5082778;28;19974;-58
2023/09/29 03:08:07;;;;;;;;;;;;;;;;;;5082913;28;19924;-58
2023/09/29 03:10:33;;;;;;;;;;;;;;;;;;5081815;28;19999;-58
2023/09/29 03:12:59;;;;;;;;;;;;;;;;;;5083488;28;19924;-59
2023/09/29 03:15:25;;;;;;;;;;;;;;;;;;5083454;28;19993;-58
2023/09/29 03:17:55;;;;;;;;;;;;;;;;;;5082216;28;19931;-58
2023/09/29 03:20:21;;;;;;;;;;;;;;;;;;5082778;28;19924;-58
2023/09/29 03:22:48;;;;;;;;;;;;;;;;;;5082431;28;19935;-58
2023/09/29 03:25:16;;;;;;;;;;;;;;;;;;5082634;28;19928;-58
2023/09/29 03:27:43;;;;;;;;;;;;;;;;;;5065084;28;19931;-58
2023/09/29 03:30:09;;;;;;;;;;;;;;;;;;5083302;28;20474;-58
2023/09/29 03:32:35;;;;;;;;;;;;;;;;;;5086671;28;19927;-58
2023/09/29 03:35:04;;;;;;;;;;;;;;;;;;5086814;28;19977;-59
2023/09/29 03:37:34;;;;;;;;;;;;;;;;;;5085558;28;20007;-58
2023/09/29 03:40:00;;;;;;;;;;;;;;;;;;5086689;28;19974;-60
2023/09/29 03:42:29;;;;;;;;;;;;;;;;;;5087025;28;19924;-58
2023/09/29 03:44:55;;;;;;;;;;;;;;;;;;5087035;28;20373;-58
2023/09/29 03:47:21;;;;;;;;;;;;;;;;;;5085828;28;19939;-58
2023/09/29 03:49:47;;;;;;;;;;;;;;;;;;5084720;28;19931;-59
2023/09/29 03:52:12;;;;;;;;;;;;;;;;;;5086914;28;19924;-59
2023/09/29 03:54:39;;;;;;;;;;;;;;;;;;5086128;28;19931;-60
2023/09/29 03:57:10;;;;;;;;;;;;;;;;;;5086896;28;19931;-60
2023/09/29 03:59:36;;;;;;;;;;;;;;;;;;5083714;28;19924;-61
2023/09/29 04:02:02;;;;;;;;;;;;;;;;;;5085568;28;19935;-61
2023/09/29 04:04:28;;;;;;;;;;;;;;;;;;5086339;28;19931;-60
2023/09/29 04:06:54;;;;;;;;;;;;;;;;;;5086609;28;19953;-60
2023/09/29 04:09:20;;;;;;;;;;;;;;;;;;5086172;28;20381;-60
2023/09/29 04:11:46;;;;;;;;;;;;;;;;;;5085310;28;19931;-60
2023/09/29 04:14:12;;;;;;;;;;;;;;;;;;5086493;28;19925;-60
2023/09/29 04:16:38;;;;;;;;;;;;;;;;;;5085629;28;19924;-60
2023/09/29 04:19:04;;;;;;;;;;;;;;;;;;5086416;28;20370;-61
2023/09/29 04:21:30;;;;;;;;;;;;;;;;;;5086265;28;19985;-60
2023/09/29 04:23:56;;;;;;;;;;;;;;;;;;5086618;28;19957;-60
2023/09/29 04:26:22;;;;;;;;;;;;;;;;;;5084078;28;20031;-61
2023/09/29 04:28:48;;;;;;;;;;;;;;;;;;5086094;28;20173;-61
2023/09/29 04:31:14;;;;;;;;;;;;;;;;;;5080083;28;20386;-60
2023/09/29 04:33:40;;;;;;;;;;;;;;;;;;5083952;28;19970;-61
2023/09/29 04:36:06;;;;;;;;;;;;;;;;;;5083716;28;19928;-61
2023/09/29 04:38:32;;;;;;;;;;;;;;;;;;5086239;28;19936;-61
2023/09/29 04:40:58;;;;;;;;;;;;;;;;;;5085097;28;19924;-60
2023/09/29 04:43:24;;;;;;;;;;;;;;;;;;5082617;28;20182;-60
2023/09/29 04:45:50;;;;;;;;;;;;;;;;;;5084430;28;20421;-60
2023/09/29 04:48:16;;;;;;;;;;;;;;;;;;5085526;28;19920;-61
2023/09/29 04:50:42;;;;;;;;;;;;;;;;;;5085287;28;19924;-60
2023/09/29 04:53:08;;;;;;;;;;;;;;;;;;5063869;28;19947;-58
2023/09/29 04:55:34;;;;;;;;;;;;;;;;;;5084040;28;20600;-58
2023/09/29 04:58:00;;;;;;;;;;;;;;;;;;5085308;28;19924;-58
2023/09/29 05:00:26;;;;;;;;;;;;;;;;;;5084901;28;19931;-58
2023/09/29 05:02:52;;;;;;;;;;;;;;;;;;5084845;28;19928;-58
2023/09/29 05:05:18;;;;;;;;;;;;;;;;;;5083478;28;19925;-58
2023/09/29 05:07:45;;;;;;;;;;;;;;;;;;5081347;28;19927;-60
2023/09/29 05:10:11;;;;;;;;;;;;;;;;;;5077535;28;19924;-61
2023/09/29 05:12:37;;;;;;;;;;;;;;;;;;5084591;28;19927;-60
2023/09/29 05:15:05;;;;;;;;;;;;;;;;;;5077795;28;20159;-61
2023/09/29 05:17:31;;;;;;;;;;;;;;;;;;5069413;28;19963;-60
2023/09/29 05:19:57;;;;;;;;;;;;;;;;;;5083119;28;19997;-60
2023/09/29 05:22:23;;;;;;;;;;;;;;;;;;5085110;28;20018;-60
2023/09/29 05:24:49;;;;;;;;;;;;;;;;;;5083257;28;20547;-60
2023/09/29 05:27:15;;;;;;;;;;;;;;;;;;5084397;28;19928;-61
2023/09/29 05:29:41;;;;;;;;;;;;;;;;;;5079044;28;20270;-60
2023/09/29 05:32:07;;;;;;;;;;;;;;;;;;5078146;28;19924;-61
2023/09/29 05:34:33;;;;;;;;;;;;;;;;;;5083043;28;19928;-61
2023/09/29 05:36:59;;;;;;;;;;;;;;;;;;5083385;28;19951;-60
2023/09/29 05:39:25;;;;;;;;;;;;;;;;;;5083702;28;19955;-61
2023/09/29 05:41:51;;;;;;;;;;;;;;;;;;5084489;28;19924;-59
2023/09/29 05:44:17;;;;;;;;;;;;;;;;;;5084698;28;19971;-59
2023/09/29 05:46:43;;;;;;;;;;;;;;;;;;5085111;28;20065;-60
2023/09/29 05:49:10;;;;;;;;;;;;;;;;;;5084491;28;20417;-60
2023/09/29 05:51:36;;;;;;;;;;;;;;;;;;5082067;28;20139;-60
2023/09/29 05:54:03;;;;;;;;;;;;;;;;;;5084358;28;20022;-59
2023/09/29 05:56:31;;;;;;;;;;;;;;;;;;5065537;28;19969;-59
2023/09/29 05:58:57;;;;;;;;;;;;;;;;;;5084050;28;20442;-59
2023/09/29 06:01:25;;;;;;;;;;;;;;;;;;5084353;28;19924;-60
2023/09/29 06:03:51;;;;;;;;;;;;;;;;;;5075314;28;19985;-60
2023/09/29 06:06:17;;;;;;;;;;;;;;;;;;5080738;28;20378;-60
2023/09/29 06:08:44;;;;;;;;;;;;;;;;;;5079482;28;19924;-61
2023/09/29 06:11:10;;;;;;;;;;;;;;;;;;5075384;28;19920;-59
2023/09/29 06:13:37;;;;;;;;;;;;;;;;;;5079586;28;19938;-61
2023/09/29 06:16:03;;;;;;;;;;;;;;;;;;5081106;28;19924;-60
2023/09/29 06:18:29;;;;;;;;;;;;;;;;;;5080262;28;19930;-61
2023/09/29 06:20:55;;;;;;;;;;;;;;;;;;5080659;28;19928;-59
2023/09/29 06:23:21;;;;;;;;;;;;;;;;;;5080342;28;19928;-59
2023/09/29 06:25:47;;;;;;;;;;;;;;;;;;5078982;28;20565;-61
2023/09/29 06:28:13;;;;;;;;;;;;;;;;;;5079461;28;19928;-60
2023/09/29 06:30:39;;;;;;;;;;;;;;;;;;5080201;28;19932;-61
2023/09/29 06:33:06;;;;;;;;;;;;;;;;;;5080098;28;19969;-60
2023/09/29 06:35:32;;;;;;;;;;;;;;;;;;5079558;28;19928;-60
2023/09/29 06:37:58;;;;;;;;;;;;;;;;;;5079370;28;19927;-61
2023/09/29 06:40:24;;;;;;;;;;;;;;;;;;5080168;28;19969;-60
2023/09/29 06:42:50;;;;;;;;;;;;;;;;;;5080312;28;19974;-60
2023/09/29 06:45:16;;;;;;;;;;;;;;;;;;5079441;28;19970;-60
2023/09/29 06:47:42;;;;;;;;;;;;;;;;;;5062269;28;19931;-61
2023/09/29 06:50:10;;;;;;;;;;;;;;;;;;5081749;28;19932;-60
2023/09/29 06:52:37;;;;;;;;;;;;;;;;;;5082607;28;19948;-60
2023/09/29 06:55:03;;;;;;;;;;;;;;;;;;5073203;28;19993;-60
2023/09/29 06:57:29;;;;;;;;;;;;;;;;;;5079199;28;20516;-59
2023/09/29 06:59:55;;;;;;;;;;;;;;;;;;5061218;28;19935;-60
2023/09/29 07:02:21;;;;;;;;;;;;;;;;;;5078510;28;19947;-60
2023/09/29 07:04:47;;;;;;;;;;;;;;;;;;5082010;28;20435;-60
2023/09/29 07:07:13;;;;;;;;;;;;;;;;;;5087304;28;19938;-61
2023/09/29 07:09:39;;;;;;;;;;;;;;;;;;5088777;28;20558;-62
2023/09/29 07:12:06;;;;;;;;;;;;;;;;;;5090480;28;20010;-60
2023/09/29 07:14:32;;;;;;;;;;;;;;;;;;5088829;28;19928;-61
2023/09/29 07:16:58;;;;;;;;;;;;;;;;;;5086929;28;19928;-60
2023/09/29 07:19:24;;;;;;;;;;;;;;;;;;5085692;28;19928;-60
2023/09/29 07:21:50;;;;;;;;;;;;;;;;;;5085021;28;20335;-60
2023/09/29 07:24:16;;;;;;;;;;;;;;;;;;5085186;28;19928;-60
2023/09/29 07:26:42;;;;;;;;;;;;;;;;;;5086136;28;19951;-60
2023/09/29 07:29:08;;;;;;;;;;;;;;;;;;5086802;28;19924;-60
2023/09/29 07:31:34;;;;;;;;;;;;;;;;;;5086400;28;20623;-60
2023/09/29 07:34:01;;;;;;;;;;;;;;;;;;5085931;28;19924;-60
2023/09/29 07:36:30;;;;;;;;;;;;;;;;;;5084603;28;19924;-59
2023/09/29 07:38:56;;;;;;;;;;;;;;;;;;5084728;28;19924;-60
2023/09/29 07:41:22;;;;;;;;;;;;;;;;;;5085708;28;19930;-60
2023/09/29 07:43:48;;;;;;;;;;;;;;;;;;5085228;28;19924;-59
2023/09/29 07:46:14;;;;;;;;;;;;;;;;;;5085703;28;19932;-62
2023/09/29 07:48:39;;;;;;;;;;;;;;;;;;5087424;28;19924;-60
2023/09/29 07:51:05;;;;;;;;;;;;;;;;;;5080234;28;19924;-61
2023/09/29 07:53:31;;;;;;;;;;;;;;;;;;5068017;28;20224;-61
2023/09/29 07:55:57;;;;;;;;;;;;;;;;;;5085289;28;19959;-62
2023/09/29 07:58:23;;;;;;;;;;;;;;;;;;5086367;28;19971;-61
2023/09/29 08:00:49;;;;;;;;;;;;;;;;;;5086557;28;19928;-61
2023/09/29 08:03:15;;;;;;;;;;;;;;;;;;5087014;28;20386;-58
2023/09/29 08:05:41;;;;;;;;;;;;;;;;;;5086503;28;20293;-61
2023/09/29 08:08:07;;;;;;;;;;;;;;;;;;5079321;28;19959;-60
2023/09/29 08:10:33;;;;;;;;;;;;;;;;;;5063479;28;20031;-61
2023/09/29 08:12:59;;;;;;;;;;;;;;;;;;5084886;28;20058;-61
2023/09/29 08:15:25;;;;;;;;;;;;;;;;;;5086120;28;19924;-61
2023/09/29 08:17:51;;;;;;;;;;;;;;;;;;5083433;28;19936;-61
2023/09/29 08:20:18;;;;;;;;;;;;;;;;;;5079714;28;19949;-61
2023/09/29 08:22:44;;;;;;;;;;;;;;;;;;5083266;28;19938;-59
2023/09/29 08:25:10;;;;;;;;;;;;;;;;;;5083568;28;20586;-58
2023/09/29 08:27:36;;;;;;;;;;;;;;;;;;5084055;28;19924;-58
2023/09/29 08:30:02;;;;;;;;;;;;;;;;;;5064781;28;19928;-58
2023/09/29 08:32:28;;;;;;;;;;;;;;;;;;5074830;28;19928;-58
2023/09/29 08:34:54;;;;;;;;;;;;;;;;;;5082398;28;19932;-58
2023/09/29 08:37:20;;;;;;;;;;;;;;;;;;5087521;28;19924;-59
2023/09/29 08:39:46;;;;;;;;;;;;;;;;;;5083053;28;19932;-59
2023/09/29 08:42:12;;;;;;;;;;;;;;;;;;5083400;28;19973;-58
2023/09/29 08:44:38;;;;;;;;;;;;;;;;;;5082774;28;19971;-58
2023/09/29 08:47:05;;;;;;;;;;;;;;;;;;5082104;28;20596;-59
2023/09/29 08:49:30;;;;;;;;;;;;;;;;;;5081733;28;19924;-59
2023/09/29 08:51:56;;;;;;;;;;;;;;;;;;5082443;28;19931;-59
2023/09/29 08:54:22;;;;;;;;;;;;;;;;;;5072721;28;20024;-58
2023/09/29 08:56:48;;;;;;;;;;;;;;;;;;5071310;28;20541;-58
2023/09/29 08:59:15;;;;;;;;;;;;;;;;;;5083310;28;19924;-58
2023/09/29 09:01:41;;;;;;;;;;;;;;;;;;5082436;28;20389;-58
2023/09/29 09:04:06;;;;;;;;;;;;;;;;;;5081528;28;19969;-58
2023/09/29 09:06:32;;;;;;;;;;;;;;;;;;5082286;28;19928;-58
2023/09/29 09:08:58;;;;;;;;;;;;;;;;;;5081604;28;20019;-58
2023/09/29 09:11:25;;;;;;;;;;;;;;;;;;5082697;28;20061;-58
2023/09/29 09:13:51;;;;;;;;;;;;;;;;;;5082133;28;20674;-58
2023/09/29 09:16:17;;;;;;;;;;;;;;;;;;5081334;28;20060;-58
2023/09/29 09:18:43;;;;;;;;;;;;;;;;;;5081165;28;19947;-58
2023/09/29 09:21:09;;;;;;;;;;;;;;;;;;5080954;28;20583;-58
2023/09/29 09:23:37;;;;;;;;;;;;;;;;;;5082612;28;19935;-59
2023/09/29 09:26:02;;;;;;;;;;;;;;;;;;5081239;28;19931;-58
2023/09/29 09:28:30;;;;;;;;;;;;;;;;;;5081702;28;19924;-59
2023/09/29 09:30:56;;;;;;;;;;;;;;;;;;5063191;28;19924;-59
2023/09/29 09:33:22;;;;;;;;;;;;;;;;;;5080412;28;19932;-58
2023/09/29 09:35:48;;;;;;;;;;;;;;;;;;5081573;28;19935;-59
2023/09/29 09:38:14;;;;;;;;;;;;;;;;;;5080778;28;19940;-58
2023/09/29 09:40:40;;;;;;;;;;;;;;;;;;5080578;28;20022;-59
2023/09/29 09:43:08;;;;;;;;;;;;;;;;;;5058417;28;20251;-59
2023/09/29 09:45:34;;;;;;;;;;;;;;;;;;5080722;28;19932;-58
2023/09/29 09:48:01;;;;;;;;;;;;;;;;;;5081447;28;19973;-58
2023/09/29 09:50:30;;;;;;;;;;;;;;;;;;5081037;28;19971;-59
2023/09/29 09:52:57;;;;;;;;;;;;;;;;;;5080564;28;19930;-59
2023/09/29 09:55:23;;;;;;;;;;;;;;;;;;5079659;28;20146;-59
2023/09/29 09:57:50;;;;;;;;;;;;;;;;;;5078294;28;20356;-59
2023/09/29 10:00:16;;;;;;;;;;;;;;;;;;5081081;28;20408;-58
2023/09/29 10:02:43;;;;;;;;;;;;;;;;;;5078057;28;19924;-62
2023/09/29 10:05:31;;;;;;;;;;;;;;;;;;5081612;28;19989;-61
2023/09/29 10:08:01;;;;;;;;;;;;;;;;;;5081233;28;19931;-61
2023/09/29 10:10:31;;;;;;;;;;;;;;;;;;5078143;28;19924;-61
2023/09/29 10:12:57;;;;;;;;;;;;;;;;;;5062952;28;19931;-61
2023/09/29 10:15:27;;;;;;;;;;;;;;;;;;5080939;28;20036;-61
2023/09/29 10:17:53;;;;;;;;;;;;;;;;;;5079158;28;19930;-61
2023/09/29 10:20:19;;;;;;;;;;;;;;;;;;5079259;28;20618;-62
2023/09/29 10:22:46;;;;;;;;;;;;;;;;;;5076963;28;19928;-61
2023/09/29 10:25:19;;;;;;;;;;;;;;;;;;5078520;28;19931;-61
2023/09/29 10:27:49;;;;;;;;;;;;;;;;;;5076083;28;19924;-61
2023/09/29 10:30:18;;;;;;;;;;;;;;;;;;5078282;28;20007;-61
2023/09/29 10:32:46;;;;;;;;;;;;;;;;;;5083649;28;20389;-61
2023/09/29 10:35:18;;;;;;;;;;;;;;;;;;5082708;28;20019;-61
2023/09/29 10:37:45;;;;;;;;;;;;;;;;;;5083626;28;19928;-61
2023/09/29 10:40:12;;;;;;;;;;;;;;;;;;5081621;28;20018;-60
2023/09/29 10:42:38;;;;;;;;;;;;;;;;;;5082642;28;20027;-60
2023/09/29 10:45:06;;;;;;;;;;;;;;;;;;5083425;28;20011;-61
2023/09/29 10:47:32;;;;;;;;;;;;;;;;;;5071003;28;20002;-61
2023/09/29 10:50:00;;;;;;;;;;;;;;;;;;5056685;28;19925;-61
2023/09/29 10:52:27;;;;;;;;;;;;;;;;;;5079545;28;19940;-61
2023/09/29 10:54:56;;;;;;;;;;;;;;;;;;5078407;28;19995;-60
2023/09/29 10:57:23;;;;;;;;;;;;;;;;;;5076188;28;19928;-62
2023/09/29 10:59:49;;;;;;;;;;;;;;;;;;5082009;28;20023;-61
2023/09/29 11:02:15;;;;;;;;;;;;;;;;;;5083007;28;20007;-62
2023/09/29 11:04:42;;;;;;;;;;;;;;;;;;5082631;28;20018;-62
2023/09/29 11:07:08;;;;;;;;;;;;;;;;;;5080147;28;19924;-61
2023/09/29 11:09:34;;;;;;;;;;;;;;;;;;5079721;28;20011;-61
2023/09/29 11:12:00;;;;;;;;;;;;;;;;;;5064976;28;20015;-61
2023/09/29 11:14:26;;;;;;;;;;;;;;;;;;5080417;28;20705;-61
2023/09/29 11:16:52;;;;;;;;;;;;;;;;;;5081995;28;20573;-62
2023/09/29 11:19:18;;;;;;;;;;;;;;;;;;5076139;28;19969;-61
2023/09/29 11:21:44;;;;;;;;;;;;;;;;;;5082274;28;20304;-61
2023/09/29 11:24:10;;;;;;;;;;;;;;;;;;5078575;28;19939;-61
2023/09/29 11:26:36;;;;;;;;;;;;;;;;;;5058900;28;19932;-62
2023/09/29 11:29:02;;;;;;;;;;;;;;;;;;5080988;28;19924;-61
2023/09/29 11:31:28;;;;;;;;;;;;;;;;;;5080247;28;19977;-62
2023/09/29 11:33:56;;;;;;;;;;;;;;;;;;5077284;28;19932;-62
2023/09/29 11:36:23;;;;;;;;;;;;;;;;;;5055786;28;19928;-62
2023/09/29 11:38:51;;;;;;;;;;;;;;;;;;5080854;28;19957;-62
2023/09/29 11:41:18;;;;;;;;;;;;;;;;;;5079233;28;20270;-62
2023/09/29 11:43:44;;;;;;;;;;;;;;;;;;5084254;28;19928;-62
2023/09/29 11:46:10;;;;;;;;;;;;;;;;;;5085276;28;19976;-62
2023/09/29 11:48:36;;;;;;;;;;;;;;;;;;5099334;28;19927;-62
2023/09/29 11:51:03;;;;;;;;;;;;;;;;;;5083605;28;19931;-61
2023/09/29 11:53:29;;;;;;;;;;;;;;;;;;5086039;28;19985;-62
2023/09/29 11:55:56;;;;;;;;;;;;;;;;;;5085571;28;19967;-62
2023/09/29 11:58:25;;;;;;;;;;;;;;;;;;5068866;28;19924;-61
2023/09/29 12:00:51;;;;;;;;;;;;;;;;;;5089085;28;19989;-61
2023/09/29 12:03:20;;;;;;;;;;;;;;;;;;5084809;28;20589;-61
2023/09/29 12:05:49;;;;;;;;;;;;;;;;;;5087573;28;19928;-61
2023/09/29 12:08:15;;;;;;;;;;;;;;;;;;5065664;28;20626;-62
2023/09/29 12:10:41;;;;;;;;;;;;;;;;;;5070991;28;20034;-61
2023/09/29 12:13:07;;;;;;;;;;;;;;;;;;5086863;28;19927;-61
2023/09/29 12:15:33;;;;;;;;;;;;;;;;;;5067651;28;19928;-61
2023/09/29 12:18:00;;;;;;;;;;;;;;;;;;5065173;28;19924;-61
2023/09/29 12:20:25;;;;;;;;;;;;;;;;;;5065979;28;19931;-62
2023/09/29 12:22:52;;;;;;;;;;;;;;;;;;5063150;28;19925;-63
2023/09/29 12:25:18;;;;;;;;;;;;;;;;;;5064678;28;19920;-62
2023/09/29 12:27:43;;;;;;;;;;;;;;;;;;5058957;28;19925;-62
2023/09/29 12:30:12;;;;;;;;;;;;;;;;;;5058059;28;19924;-62
2023/09/29 12:32:38;;;;;;;;;;;;;;;;;;5052591;28;19925;-61
2023/09/29 12:35:04;;;;;;;;;;;;;;;;;;5061434;28;20405;-62
2023/09/29 12:37:30;;;;;;;;;;;;;;;;;;5066756;28;19924;-61
2023/09/29 12:39:56;;;;;;;;;;;;;;;;;;5054707;28;19924;-61
2023/09/29 12:42:22;;;;;;;;;;;;;;;;;;5056178;28;19932;-62
2023/09/29 12:44:49;;;;;;;;;;;;;;;;;;5066099;28;20081;-62
2023/09/29 12:47:15;;;;;;;;;;;;;;;;;;5061945;28;20428;-62
2023/09/29 12:49:41;;;;;;;;;;;;;;;;;;5063202;28;19931;-62
2023/09/29 12:52:08;;;;;;;;;;;;;;;;;;5062096;28;19943;-62
2023/09/29 12:54:34;;;;;;;;;;;;;;;;;;5061663;28;20404;-62
2023/09/29 12:56:59;;;;;;;;;;;;;;;;;;5062974;28;20529;-62
2023/09/29 12:59:27;;;;;;;;;;;;;;;;;;5063268;28;19924;-61
2023/09/29 13:01:53;;;;;;;;;;;;;;;;;;5062444;28;20443;-62
2023/09/29 13:04:19;;;;;;;;;;;;;;;;;;5058117;28;19928;-62
2023/09/29 13:06:44;;;;;;;;;;;;;;;;;;5060159;28;19932;-61
2023/09/29 13:09:11;;;;;;;;;;;;;;;;;;5060072;28;19924;-62
2023/09/29 13:11:37;;;;;;;;;;;;;;;;;;5058234;28;20019;-61
2023/09/29 13:14:03;;;;;;;;;;;;;;;;;;5056771;28;20019;-61
2023/09/29 13:16:29;;;;;;;;;;;;;;;;;;5082418;28;19928;-61
2023/09/29 13:18:55;;;;;;;;;;;;;;;;;;5082080;28;20639;-61
2023/09/29 13:21:21;;;;;;;;;;;;;;;;;;5081990;28;19939;-61
2023/09/29 13:23:47;;;;;;;;;;;;;;;;;;5081302;28;19981;-61
2023/09/29 13:26:14;;;;;;;;;;;;;;;;;;5080679;28;19993;-61
2023/09/29 13:28:39;;;;;;;;;;;;;;;;;;5071182;28;20470;-62
2023/09/29 13:31:05;;;;;;;;;;;;;;;;;;5062327;28;20366;-61
2023/09/29 13:33:31;;;;;;;;;;;;;;;;;;5072450;28;19928;-62
2023/09/29 13:35:57;;;;;;;;;;;;;;;;;;5080196;28;19932;-61
2023/09/29 13:38:23;;;;;;;;;;;;;;;;;;5074820;28;19920;-61
2023/09/29 13:40:49;;;;;;;;;;;;;;;;;;5078643;28;19928;-61
2023/09/29 13:43:15;;;;;;;;;;;;;;;;;;5075310;28;20393;-61
2023/09/29 13:45:41;;;;;;;;;;;;;;;;;;5078505;28;19974;-61
2023/09/29 13:48:07;;;;;;;;;;;;;;;;;;5077188;28;20027;-61
2023/09/29 13:50:33;;;;;;;;;;;;;;;;;;5081093;28;19939;-61
2023/09/29 13:52:59;;;;;;;;;;;;;;;;;;5078274;28;19932;-62
2023/09/29 13:55:25;;;;;;;;;;;;;;;;;;5081691;28;19928;-61
2023/09/29 13:57:51;;;;;;;;;;;;;;;;;;5079519;28;19924;-61
2023/09/29 14:00:18;;;;;;;;;;;;;;;;;;5073289;28;19924;-61
2023/09/29 14:02:44;;;;;;;;;;;;;;;;;;5081021;28;20378;-61
2023/09/29 14:05:11;;;;;;;;;;;;;;;;;;5080457;28;19928;-61
2023/09/29 14:07:37;;;;;;;;;;;;;;;;;;5078647;28;19928;-61
2023/09/29 14:10:03;;;;;;;;;;;;;;;;;;5078929;28;19934;-61
2023/09/29 14:12:29;;;;;;;;;;;;;;;;;;5082282;28;19928;-61
2023/09/29 14:14:55;;;;;;;;;;;;;;;;;;5079123;28;19975;-61
2023/09/29 14:17:21;;;;;;;;;;;;;;;;;;5080875;28;20451;-61
2023/09/29 14:19:47;;;;;;;;;;;;;;;;;;5076265;28;20019;-61
2023/09/29 14:22:13;;;;;;;;;;;;;;;;;;5075152;28;19928;-61
2023/09/29 14:24:39;;;;;;;;;;;;;;;;;;5068707;28;20030;-61
2023/09/29 14:27:06;;;;;;;;;;;;;;;;;;5078487;28;20472;-63
2023/09/29 14:29:32;;;;;;;;;;;;;;;;;;5076247;28;19932;-62
2023/09/29 14:31:58;;;;;;;;;;;;;;;;;;5073201;28;20378;-62
2023/09/29 14:34:24;;;;;;;;;;;;;;;;;;5076763;28;19924;-61
2023/09/29 14:36:50;;;;;;;;;;;;;;;;;;5083751;28;19970;-61
2023/09/29 14:39:15;;;;;;;;;;;;;;;;;;5083268;28;19954;-61
2023/09/29 14:41:42;;;;;;;;;;;;;;;;;;5083347;28;19931;-62
2023/09/29 14:44:08;;;;;;;;;;;;;;;;;;5065563;28;19932;-62
2023/09/29 14:46:34;;;;;;;;;;;;;;;;;;5081655;28;19985;-63
2023/09/29 14:49:00;;;;;;;;;;;;;;;;;;5083859;28;19928;-63
2023/09/29 14:51:26;;;;;;;;;;;;;;;;;;5080136;28;19926;-61
2023/09/29 14:53:53;;;;;;;;;;;;;;;;;;5082951;28;19932;-61
2023/09/29 14:56:19;;;;;;;;;;;;;;;;;;5082844;28;19931;-62
2023/09/29 14:58:45;;;;;;;;;;;;;;;;;;5083341;28;19924;-62
2023/09/29 15:01:10;;;;;;;;;;;;;;;;;;5068694;28;19924;-62
2023/09/29 15:03:36;;;;;;;;;;;;;;;;;;5083534;28;19934;-61
2023/09/29 15:06:02;;;;;;;;;;;;;;;;;;5083625;28;19924;-61
2023/09/29 15:08:28;;;;;;;;;;;;;;;;;;5082900;28;19924;-61
2023/09/29 15:10:54;;;;;;;;;;;;;;;;;;5078836;28;19931;-61
2023/09/29 15:13:21;;;;;;;;;;;;;;;;;;5082992;28;19932;-61
2023/09/29 15:15:47;;;;;;;;;;;;;;;;;;5061769;28;19927;-62
2023/09/29 15:18:13;;;;;;;;;;;;;;;;;;5082564;28;20142;-62
2023/09/29 15:20:40;;;;;;;;;;;;;;;;;;5080333;28;20421;-62
2023/09/29 15:23:06;;;;;;;;;;;;;;;;;;5077458;28;19928;-62
2023/09/29 15:25:32;;;;;;;;;;;;;;;;;;5084533;28;19930;-62
2023/09/29 15:27:58;;;;;;;;;;;;;;;;;;5085064;28;19920;-62
2023/09/29 15:30:24;;;;;;;;;;;;;;;;;;5087431;28;19970;-61
2023/09/29 15:32:50;;;;;;;;;;;;;;;;;;5081751;28;19986;-62
2023/09/29 15:35:16;;;;;;;;;;;;;;;;;;5086139;28;20396;-61
2023/09/29 15:37:42;;;;;;;;;;;;;;;;;;5086538;28;20018;-64
2023/09/29 15:40:11;;;;;;;;;;;;;;;;;;5084017;28;19920;-62
2023/09/29 15:42:37;;;;;;;;;;;;;;;;;;5083374;28;19928;-62
2023/09/29 15:45:03;;;;;;;;;;;;;;;;;;5086566;28;19946;-63
2023/09/29 15:47:29;;;;;;;;;;;;;;;;;;5080243;28;19932;-62
2023/09/29 15:49:55;;;;;;;;;;;;;;;;;;5087237;28;19924;-63
2023/09/29 15:52:21;;;;;;;;;;;;;;;;;;5086557;28;19924;-63
2023/09/29 15:54:47;;;;;;;;;;;;;;;;;;5087085;28;19924;-63
2023/09/29 15:57:13;;;;;;;;;;;;;;;;;;5083107;28;20324;-63
2023/09/29 15:59:39;;;;;;;;;;;;;;;;;;5086319;28;19924;-63
2023/09/29 16:02:05;;;;;;;;;;;;;;;;;;5086693;28;19928;-63
2023/09/29 16:04:31;;;;;;;;;;;;;;;;;;5086727;28;19982;-63
2023/09/29 16:06:57;;;;;;;;;;;;;;;;;;5084139;28;20030;-63
2023/09/29 16:09:25;;;;;;;;;;;;;;;;;;5083063;28;20047;-62
2023/09/29 16:11:51;;;;;;;;;;;;;;;;;;5083749;28;19969;-63
2023/09/29 16:14:17;;;;;;;;;;;;;;;;;;5084272;28;19924;-63
2023/09/29 16:16:43;;;;;;;;;;;;;;;;;;5059170;28;20409;-63
2023/09/29 16:19:08;;;;;;;;;;;;;;;;;;5065471;28;19925;-63
2023/09/29 16:21:34;;;;;;;;;;;;;;;;;;5072643;28;19931;-63
2023/09/29 16:24:00;;;;;;;;;;;;;;;;;;5069417;28;20293;-64
2023/09/29 16:26:26;;;;;;;;;;;;;;;;;;5065076;28;19924;-63
2023/09/29 16:28:53;;;;;;;;;;;;;;;;;;5059554;28;19932;-62
2023/09/29 16:31:19;;;;;;;;;;;;;;;;;;5065218;28;19940;-62
2023/09/29 16:33:44;;;;;;;;;;;;;;;;;;5046980;28;19924;-62
2023/09/29 16:36:10;;;;;;;;;;;;;;;;;;5057681;28;19932;-62
2023/09/29 16:38:36;;;;;;;;;;;;;;;;;;5063625;28;20644;-62